sensor_id;sensor_type;location;lat;lon;timestamp;P1;durP1;ratioP1;P2;durP2;ratioP2
1829;SDS011;914;48.118;11.600;2022-12-24T00:00:32;1.00;;;0.90;;
1829;SDS011;914;48.118;11.600;2022-12-24T00:02:59;1.10;;;1.00;;
1829;SDS011;914;48.118;11.600;2022-12-24T00:05:25;1.10;;;1.00;;
1829;SDS011;914;48.118;11.600;2022-12-24T00:07:50;1.17;;;1.00;;
1829;SDS011;914;48.118;11.600;2022-12-24T00:10:16;3.53;;;1.20;;
1829;SDS011;914;48.118;11.600;2022-12-24T00:12:42;1.13;;;1.03;;
1829;SDS011;914;48.118;11.600;2022-12-24T00:15:08;2.00;;;1.10;;
1829;SDS011;914;48.118;11.600;2022-12-24T00:17:34;1.10;;;1.00;;
1829;SDS011;914;48.118;11.600;2022-12-24T00:20:00;1.63;;;1.20;;
1829;SDS011;914;48.118;11.600;2022-12-24T00:22:26;2.70;;;1.00;;
1829;SDS011;914;48.118;11.600;2022-12-24T00:24:52;1.27;;;1.03;;
1829;SDS011;914;48.118;11.600;2022-12-24T00:27:18;0.87;;;0.87;;
1829;SDS011;914;48.118;11.600;2022-12-24T00:29:43;1.80;;;1.10;;
1829;SDS011;914;48.118;11.600;2022-12-24T00:32:09;1.30;;;1.20;;
1829;SDS011;914;48.118;11.600;2022-12-24T00:34:35;1.70;;;0.90;;
1829;SDS011;914;48.118;11.600;2022-12-24T00:37:02;0.90;;;0.90;;
1829;SDS011;914;48.118;11.600;2022-12-24T00:39:29;2.80;;;1.00;;
1829;SDS011;914;48.118;11.600;2022-12-24T00:41:55;0.90;;;0.90;;
1829;SDS011;914;48.118;11.600;2022-12-24T00:44:23;2.20;;;0.90;;
1829;SDS011;914;48.118;11.600;2022-12-24T00:46:49;0.90;;;0.90;;
1829;SDS011;914;48.118;11.600;2022-12-24T00:49:17;0.93;;;0.80;;
1829;SDS011;914;48.118;11.600;2022-12-24T00:51:43;1.43;;;0.90;;
1829;SDS011;914;48.118;11.600;2022-12-24T00:54:08;1.10;;;1.00;;
1829;SDS011;914;48.118;11.600;2022-12-24T00:56:34;0.93;;;0.90;;
1829;SDS011;914;48.118;11.600;2022-12-24T00:59:00;1.00;;;0.90;;
1829;SDS011;914;48.118;11.600;2022-12-24T01:01:27;0.80;;;0.80;;
1829;SDS011;914;48.118;11.600;2022-12-24T01:03:53;0.80;;;0.80;;
1829;SDS011;914;48.118;11.600;2022-12-24T01:06:42;4.50;;;1.00;;
1829;SDS011;914;48.118;11.600;2022-12-24T01:09:08;1.00;;;0.90;;
1829;SDS011;914;48.118;11.600;2022-12-24T01:11:34;2.90;;;1.00;;
1829;SDS011;914;48.118;11.600;2022-12-24T01:14:00;1.80;;;0.87;;
1829;SDS011;914;48.118;11.600;2022-12-24T01:16:25;1.00;;;0.90;;
1829;SDS011;914;48.118;11.600;2022-12-24T01:18:51;1.10;;;1.00;;
1829;SDS011;914;48.118;11.600;2022-12-24T01:21:17;1.00;;;0.90;;
1829;SDS011;914;48.118;11.600;2022-12-24T01:23:43;1.10;;;1.00;;
1829;SDS011;914;48.118;11.600;2022-12-24T01:26:09;0.80;;;0.80;;
1829;SDS011;914;48.118;11.600;2022-12-24T01:28:36;1.03;;;0.93;;
1829;SDS011;914;48.118;11.600;2022-12-24T01:31:04;1.00;;;0.90;;
1829;SDS011;914;48.118;11.600;2022-12-24T01:33:43;1.10;;;0.93;;
1829;SDS011;914;48.118;11.600;2022-12-24T01:36:11;0.93;;;0.93;;
1829;SDS011;914;48.118;11.600;2022-12-24T01:38:43;3.17;;;1.07;;
1829;SDS011;914;48.118;11.600;2022-12-24T01:41:16;1.27;;;0.80;;
1829;SDS011;914;48.118;11.600;2022-12-24T01:47:24;3.40;;;1.00;;
1829;SDS011;914;48.118;11.600;2022-12-24T01:52:27;1.03;;;1.00;;
1829;SDS011;914;48.118;11.600;2022-12-24T01:55:16;2.03;;;1.00;;
1829;SDS011;914;48.118;11.600;2022-12-24T01:57:43;1.23;;;0.83;;
1829;SDS011;914;48.118;11.600;2022-12-24T02:00:14;1.60;;;0.97;;
1829;SDS011;914;48.118;11.600;2022-12-24T02:02:46;0.90;;;0.90;;
1829;SDS011;914;48.118;11.600;2022-12-24T02:05:19;2.60;;;1.00;;
1829;SDS011;914;48.118;11.600;2022-12-24T02:08:04;4.77;;;1.20;;
1829;SDS011;914;48.118;11.600;2022-12-24T02:10:32;1.83;;;0.90;;
1829;SDS011;914;48.118;11.600;2022-12-24T02:12:57;1.10;;;0.73;;
1829;SDS011;914;48.118;11.600;2022-12-24T02:15:25;1.20;;;1.10;;
1829;SDS011;914;48.118;11.600;2022-12-24T02:18:09;3.03;;;1.00;;
1829;SDS011;914;48.118;11.600;2022-12-24T02:26:30;1.07;;;0.97;;
1829;SDS011;914;48.118;11.600;2022-12-24T02:32:09;1.20;;;0.90;;
1829;SDS011;914;48.118;11.600;2022-12-24T02:35:00;1.57;;;0.90;;
1829;SDS011;914;48.118;11.600;2022-12-24T02:37:50;3.80;;;0.90;;
1829;SDS011;914;48.118;11.600;2022-12-24T02:40:26;1.00;;;0.90;;
1829;SDS011;914;48.118;11.600;2022-12-24T02:43:00;0.87;;;0.87;;
1829;SDS011;914;48.118;11.600;2022-12-24T02:45:31;2.40;;;1.23;;
1829;SDS011;914;48.118;11.600;2022-12-24T02:47:58;2.70;;;0.90;;
1829;SDS011;914;48.118;11.600;2022-12-24T02:50:25;1.20;;;1.10;;
1829;SDS011;914;48.118;11.600;2022-12-24T02:52:51;1.83;;;0.80;;
1829;SDS011;914;48.118;11.600;2022-12-24T03:12:40;1.57;;;1.00;;
1829;SDS011;914;48.118;11.600;2022-12-24T03:15:17;1.30;;;0.93;;
1829;SDS011;914;48.118;11.600;2022-12-24T03:17:45;2.50;;;1.30;;
1829;SDS011;914;48.118;11.600;2022-12-24T03:20:14;1.73;;;1.20;;
1829;SDS011;914;48.118;11.600;2022-12-24T03:22:44;1.83;;;1.00;;
1829;SDS011;914;48.118;11.600;2022-12-24T03:25:10;2.83;;;1.07;;
1829;SDS011;914;48.118;11.600;2022-12-24T03:27:39;2.13;;;0.90;;
1829;SDS011;914;48.118;11.600;2022-12-24T03:30:13;3.73;;;1.13;;
1829;SDS011;914;48.118;11.600;2022-12-24T03:32:39;3.17;;;1.10;;
1829;SDS011;914;48.118;11.600;2022-12-24T03:35:09;1.33;;;1.00;;
1829;SDS011;914;48.118;11.600;2022-12-24T03:37:35;2.13;;;1.10;;
1829;SDS011;914;48.118;11.600;2022-12-24T03:40:02;2.80;;;0.90;;
1829;SDS011;914;48.118;11.600;2022-12-24T03:42:29;2.10;;;1.03;;
1829;SDS011;914;48.118;11.600;2022-12-24T03:44:55;1.43;;;1.03;;
1829;SDS011;914;48.118;11.600;2022-12-24T03:47:20;0.93;;;0.90;;
1829;SDS011;914;48.118;11.600;2022-12-24T03:49:46;1.13;;;0.90;;
1829;SDS011;914;48.118;11.600;2022-12-24T03:52:12;2.13;;;1.00;;
1829;SDS011;914;48.118;11.600;2022-12-24T03:54:38;1.80;;;1.03;;
1829;SDS011;914;48.118;11.600;2022-12-24T03:57:04;2.50;;;1.13;;
1829;SDS011;914;48.118;11.600;2022-12-24T03:59:29;0.93;;;0.87;;
1829;SDS011;914;48.118;11.600;2022-12-24T04:01:55;2.03;;;1.00;;
1829;SDS011;914;48.118;11.600;2022-12-24T04:04:21;2.33;;;1.40;;
1829;SDS011;914;48.118;11.600;2022-12-24T04:06:46;1.43;;;0.90;;
1829;SDS011;914;48.118;11.600;2022-12-24T04:09:12;0.90;;;0.90;;
1829;SDS011;914;48.118;11.600;2022-12-24T04:11:38;1.97;;;1.20;;
1829;SDS011;914;48.118;11.600;2022-12-24T04:14:03;1.10;;;0.97;;
1829;SDS011;914;48.118;11.600;2022-12-24T04:16:29;1.37;;;1.00;;
1829;SDS011;914;48.118;11.600;2022-12-24T04:18:54;2.17;;;1.10;;
1829;SDS011;914;48.118;11.600;2022-12-24T04:21:20;0.73;;;0.73;;
1829;SDS011;914;48.118;11.600;2022-12-24T04:23:46;2.20;;;0.80;;
1829;SDS011;914;48.118;11.600;2022-12-24T04:26:12;1.33;;;1.10;;
1829;SDS011;914;48.118;11.600;2022-12-24T04:28:39;2.40;;;0.90;;
1829;SDS011;914;48.118;11.600;2022-12-24T04:31:07;1.33;;;0.90;;
1829;SDS011;914;48.118;11.600;2022-12-24T04:33:35;0.90;;;0.83;;
1829;SDS011;914;48.118;11.600;2022-12-24T04:36:01;1.27;;;0.80;;
1829;SDS011;914;48.118;11.600;2022-12-24T04:38:28;2.83;;;0.90;;
1829;SDS011;914;48.118;11.600;2022-12-24T04:41:01;1.33;;;1.00;;
1829;SDS011;914;48.118;11.600;2022-12-24T04:43:30;3.03;;;1.03;;
1829;SDS011;914;48.118;11.600;2022-12-24T04:46:02;1.63;;;0.90;;
1829;SDS011;914;48.118;11.600;2022-12-24T04:48:35;1.53;;;0.87;;
1829;SDS011;914;48.118;11.600;2022-12-24T04:51:02;1.57;;;1.00;;
1829;SDS011;914;48.118;11.600;2022-12-24T04:53:30;1.53;;;0.90;;
1829;SDS011;914;48.118;11.600;2022-12-24T04:55:56;1.17;;;0.90;;
1829;SDS011;914;48.118;11.600;2022-12-24T04:58:22;3.20;;;0.93;;
1829;SDS011;914;48.118;11.600;2022-12-24T05:00:48;1.80;;;1.10;;
1829;SDS011;914;48.118;11.600;2022-12-24T05:03:17;2.30;;;0.90;;
1829;SDS011;914;48.118;11.600;2022-12-24T05:05:43;0.80;;;0.80;;
1829;SDS011;914;48.118;11.600;2022-12-24T05:08:09;2.50;;;0.87;;
1829;SDS011;914;48.118;11.600;2022-12-24T05:10:37;2.67;;;1.00;;
1829;SDS011;914;48.118;11.600;2022-12-24T05:13:03;1.80;;;0.80;;
1829;SDS011;914;48.118;11.600;2022-12-24T05:15:29;1.07;;;0.90;;
1829;SDS011;914;48.118;11.600;2022-12-24T05:17:55;3.20;;;0.97;;
1829;SDS011;914;48.118;11.600;2022-12-24T05:20:22;0.90;;;0.90;;
1829;SDS011;914;48.118;11.600;2022-12-24T05:22:48;1.87;;;0.93;;
1829;SDS011;914;48.118;11.600;2022-12-24T05:25:33;1.97;;;0.80;;
1829;SDS011;914;48.118;11.600;2022-12-24T05:28:21;2.50;;;1.13;;
1829;SDS011;914;48.118;11.600;2022-12-24T05:30:47;2.20;;;0.90;;
1829;SDS011;914;48.118;11.600;2022-12-24T05:33:12;1.63;;;1.03;;
1829;SDS011;914;48.118;11.600;2022-12-24T05:35:38;1.17;;;0.90;;
1829;SDS011;914;48.118;11.600;2022-12-24T05:38:04;1.00;;;0.87;;
1829;SDS011;914;48.118;11.600;2022-12-24T05:40:30;1.97;;;1.13;;
1829;SDS011;914;48.118;11.600;2022-12-24T05:42:56;3.33;;;1.10;;
1829;SDS011;914;48.118;11.600;2022-12-24T05:45:21;1.43;;;1.10;;
1829;SDS011;914;48.118;11.600;2022-12-24T05:47:47;3.30;;;1.00;;
1829;SDS011;914;48.118;11.600;2022-12-24T05:50:12;1.83;;;0.90;;
1829;SDS011;914;48.118;11.600;2022-12-24T05:52:38;1.07;;;0.90;;
1829;SDS011;914;48.118;11.600;2022-12-24T05:55:04;1.33;;;0.90;;
1829;SDS011;914;48.118;11.600;2022-12-24T05:57:30;1.30;;;1.10;;
1829;SDS011;914;48.118;11.600;2022-12-24T06:00:01;1.03;;;0.93;;
1829;SDS011;914;48.118;11.600;2022-12-24T06:02:28;1.70;;;1.10;;
1829;SDS011;914;48.118;11.600;2022-12-24T06:04:54;1.13;;;0.90;;
1829;SDS011;914;48.118;11.600;2022-12-24T06:07:22;1.87;;;1.00;;
1829;SDS011;914;48.118;11.600;2022-12-24T06:09:47;1.77;;;1.10;;
1829;SDS011;914;48.118;11.600;2022-12-24T06:12:13;1.13;;;0.87;;
1829;SDS011;914;48.118;11.600;2022-12-24T06:14:38;1.43;;;0.87;;
1829;SDS011;914;48.118;11.600;2022-12-24T06:17:04;3.23;;;1.33;;
1829;SDS011;914;48.118;11.600;2022-12-24T06:19:30;1.27;;;1.00;;
1829;SDS011;914;48.118;11.600;2022-12-24T06:21:58;1.00;;;0.90;;
1829;SDS011;914;48.118;11.600;2022-12-24T06:24:23;2.37;;;0.90;;
1829;SDS011;914;48.118;11.600;2022-12-24T06:26:49;2.20;;;1.23;;
1829;SDS011;914;48.118;11.600;2022-12-24T06:29:14;1.17;;;1.00;;
1829;SDS011;914;48.118;11.600;2022-12-24T06:31:40;1.33;;;1.00;;
1829;SDS011;914;48.118;11.600;2022-12-24T06:34:06;3.13;;;1.07;;
1829;SDS011;914;48.118;11.600;2022-12-24T06:36:34;1.47;;;0.80;;
1829;SDS011;914;48.118;11.600;2022-12-24T06:39:03;1.57;;;0.93;;
1829;SDS011;914;48.118;11.600;2022-12-24T06:41:29;2.33;;;0.80;;
1829;SDS011;914;48.118;11.600;2022-12-24T06:43:54;1.10;;;0.87;;
1829;SDS011;914;48.118;11.600;2022-12-24T06:46:21;1.10;;;0.70;;
1829;SDS011;914;48.118;11.600;2022-12-24T06:48:46;0.93;;;0.83;;
1829;SDS011;914;48.118;11.600;2022-12-24T06:51:13;0.83;;;0.70;;
1829;SDS011;914;48.118;11.600;2022-12-24T06:53:40;0.73;;;0.60;;
1829;SDS011;914;48.118;11.600;2022-12-24T06:56:07;2.77;;;0.83;;
1829;SDS011;914;48.118;11.600;2022-12-24T06:58:35;1.17;;;0.80;;
1829;SDS011;914;48.118;11.600;2022-12-24T07:01:02;2.60;;;0.90;;
1829;SDS011;914;48.118;11.600;2022-12-24T07:03:31;1.53;;;0.60;;
1829;SDS011;914;48.118;11.600;2022-12-24T07:05:58;0.60;;;0.60;;
1829;SDS011;914;48.118;11.600;2022-12-24T07:08:24;1.23;;;0.57;;
1829;SDS011;914;48.118;11.600;2022-12-24T07:10:50;2.10;;;0.60;;
1829;SDS011;914;48.118;11.600;2022-12-24T07:13:17;0.53;;;0.53;;
1829;SDS011;914;48.118;11.600;2022-12-24T07:15:43;0.50;;;0.50;;
1829;SDS011;914;48.118;11.600;2022-12-24T07:18:10;3.80;;;0.60;;
1829;SDS011;914;48.118;11.600;2022-12-24T07:20:41;0.87;;;0.63;;
1829;SDS011;914;48.118;11.600;2022-12-24T07:23:07;1.23;;;0.60;;
1829;SDS011;914;48.118;11.600;2022-12-24T07:25:32;0.77;;;0.60;;
1829;SDS011;914;48.118;11.600;2022-12-24T07:27:58;0.70;;;0.70;;
1829;SDS011;914;48.118;11.600;2022-12-24T07:30:24;0.53;;;0.53;;
1829;SDS011;914;48.118;11.600;2022-12-24T07:32:50;0.63;;;0.63;;
1829;SDS011;914;48.118;11.600;2022-12-24T07:35:16;0.50;;;0.50;;
1829;SDS011;914;48.118;11.600;2022-12-24T07:37:44;1.17;;;0.80;;
1829;SDS011;914;48.118;11.600;2022-12-24T07:40:10;0.90;;;0.90;;
1829;SDS011;914;48.118;11.600;2022-12-24T07:42:36;0.70;;;0.70;;
1829;SDS011;914;48.118;11.600;2022-12-24T07:45:04;0.60;;;0.60;;
1829;SDS011;914;48.118;11.600;2022-12-24T07:47:30;1.27;;;0.80;;
1829;SDS011;914;48.118;11.600;2022-12-24T07:49:56;0.60;;;0.60;;
1829;SDS011;914;48.118;11.600;2022-12-24T07:52:22;0.73;;;0.60;;
1829;SDS011;914;48.118;11.600;2022-12-24T07:54:48;0.70;;;0.60;;
1829;SDS011;914;48.118;11.600;2022-12-24T07:57:13;0.70;;;0.70;;
1829;SDS011;914;48.118;11.600;2022-12-24T07:59:42;0.73;;;0.67;;
1829;SDS011;914;48.118;11.600;2022-12-24T08:02:09;1.20;;;0.90;;
1829;SDS011;914;48.118;11.600;2022-12-24T08:04:35;0.40;;;0.40;;
1829;SDS011;914;48.118;11.600;2022-12-24T08:07:02;3.90;;;1.00;;
1829;SDS011;914;48.118;11.600;2022-12-24T08:09:35;1.60;;;0.60;;
1829;SDS011;914;48.118;11.600;2022-12-24T08:12:01;0.60;;;0.60;;
1829;SDS011;914;48.118;11.600;2022-12-24T08:14:30;0.67;;;0.63;;
1829;SDS011;914;48.118;11.600;2022-12-24T08:16:56;1.23;;;0.80;;
1829;SDS011;914;48.118;11.600;2022-12-24T08:19:22;0.90;;;0.70;;
1829;SDS011;914;48.118;11.600;2022-12-24T08:21:48;1.27;;;0.80;;
1829;SDS011;914;48.118;11.600;2022-12-24T08:24:14;1.97;;;1.30;;
1829;SDS011;914;48.118;11.600;2022-12-24T08:26:39;1.90;;;0.80;;
1829;SDS011;914;48.118;11.600;2022-12-24T08:29:06;0.93;;;0.70;;
1829;SDS011;914;48.118;11.600;2022-12-24T08:31:32;0.60;;;0.60;;
1829;SDS011;914;48.118;11.600;2022-12-24T08:34:04;2.23;;;0.80;;
1829;SDS011;914;48.118;11.600;2022-12-24T08:36:32;1.13;;;0.80;;
1829;SDS011;914;48.118;11.600;2022-12-24T08:38:58;1.07;;;0.70;;
1829;SDS011;914;48.118;11.600;2022-12-24T08:41:27;0.90;;;0.90;;
1829;SDS011;914;48.118;11.600;2022-12-24T08:43:56;1.03;;;0.90;;
1829;SDS011;914;48.118;11.600;2022-12-24T08:46:21;1.23;;;0.73;;
1829;SDS011;914;48.118;11.600;2022-12-24T08:48:47;1.77;;;0.93;;
1829;SDS011;914;48.118;11.600;2022-12-24T08:51:13;1.17;;;0.73;;
1829;SDS011;914;48.118;11.600;2022-12-24T08:53:39;1.03;;;0.77;;
1829;SDS011;914;48.118;11.600;2022-12-24T08:56:06;0.83;;;0.83;;
1829;SDS011;914;48.118;11.600;2022-12-24T08:58:33;1.33;;;0.80;;
1829;SDS011;914;48.118;11.600;2022-12-24T09:00:59;1.20;;;0.80;;
1829;SDS011;914;48.118;11.600;2022-12-24T09:03:25;2.17;;;0.80;;
1829;SDS011;914;48.118;11.600;2022-12-24T09:05:51;0.93;;;0.70;;
1829;SDS011;914;48.118;11.600;2022-12-24T09:08:18;2.10;;;0.80;;
1829;SDS011;914;48.118;11.600;2022-12-24T09:10:44;0.70;;;0.60;;
1829;SDS011;914;48.118;11.600;2022-12-24T09:13:10;2.47;;;0.80;;
1829;SDS011;914;48.118;11.600;2022-12-24T09:15:35;0.80;;;0.80;;
1829;SDS011;914;48.118;11.600;2022-12-24T09:18:01;0.90;;;0.60;;
1829;SDS011;914;48.118;11.600;2022-12-24T09:20:28;1.00;;;0.70;;
1829;SDS011;914;48.118;11.600;2022-12-24T09:22:53;2.13;;;0.97;;
1829;SDS011;914;48.118;11.600;2022-12-24T09:25:19;1.27;;;0.87;;
1829;SDS011;914;48.118;11.600;2022-12-24T09:27:48;1.50;;;0.60;;
1829;SDS011;914;48.118;11.600;2022-12-24T09:30:13;1.57;;;1.23;;
1829;SDS011;914;48.118;11.600;2022-12-24T09:32:40;2.40;;;0.80;;
1829;SDS011;914;48.118;11.600;2022-12-24T09:35:06;0.70;;;0.70;;
1829;SDS011;914;48.118;11.600;2022-12-24T09:37:31;1.37;;;0.70;;
1829;SDS011;914;48.118;11.600;2022-12-24T09:39:57;1.00;;;0.73;;
1829;SDS011;914;48.118;11.600;2022-12-24T09:45:15;1.93;;;0.90;;
1829;SDS011;914;48.118;11.600;2022-12-24T09:47:57;1.87;;;0.90;;
1829;SDS011;914;48.118;11.600;2022-12-24T09:52:57;1.70;;;0.90;;
1829;SDS011;914;48.118;11.600;2022-12-24T09:55:35;2.37;;;0.87;;
1829;SDS011;914;48.118;11.600;2022-12-24T09:58:06;1.63;;;0.80;;
1829;SDS011;914;48.118;11.600;2022-12-24T10:00:46;1.50;;;0.80;;
1829;SDS011;914;48.118;11.600;2022-12-24T10:03:15;2.27;;;1.07;;
1829;SDS011;914;48.118;11.600;2022-12-24T10:05:49;0.80;;;0.70;;
1829;SDS011;914;48.118;11.600;2022-12-24T10:08:38;2.57;;;0.83;;
1829;SDS011;914;48.118;11.600;2022-12-24T10:11:18;2.03;;;0.90;;
1829;SDS011;914;48.118;11.600;2022-12-24T10:19:59;1.23;;;0.63;;
1829;SDS011;914;48.118;11.600;2022-12-24T10:22:30;1.73;;;0.90;;
1829;SDS011;914;48.118;11.600;2022-12-24T10:25:18;0.83;;;0.77;;
1829;SDS011;914;48.118;11.600;2022-12-24T10:27:49;2.40;;;0.80;;
1829;SDS011;914;48.118;11.600;2022-12-24T10:30:17;1.10;;;0.70;;
1829;SDS011;914;48.118;11.600;2022-12-24T10:32:46;0.80;;;0.80;;
1829;SDS011;914;48.118;11.600;2022-12-24T10:37:41;1.07;;;0.70;;
1829;SDS011;914;48.118;11.600;2022-12-24T10:40:13;3.80;;;1.00;;
1829;SDS011;914;48.118;11.600;2022-12-24T10:42:54;2.03;;;0.87;;
1829;SDS011;914;48.118;11.600;2022-12-24T10:45:20;0.97;;;0.80;;
1829;SDS011;914;48.118;11.600;2022-12-24T10:47:49;1.70;;;0.93;;
1829;SDS011;914;48.118;11.600;2022-12-24T10:50:23;2.63;;;0.80;;
1829;SDS011;914;48.118;11.600;2022-12-24T10:52:57;1.13;;;0.60;;
1829;SDS011;914;48.118;11.600;2022-12-24T10:55:31;2.10;;;1.00;;
1829;SDS011;914;48.118;11.600;2022-12-24T10:57:59;4.43;;;0.90;;
1829;SDS011;914;48.118;11.600;2022-12-24T11:00:26;1.20;;;0.80;;
1829;SDS011;914;48.118;11.600;2022-12-24T11:03:05;1.77;;;0.90;;
1829;SDS011;914;48.118;11.600;2022-12-24T11:05:34;2.07;;;1.10;;
1829;SDS011;914;48.118;11.600;2022-12-24T11:10:30;1.43;;;0.70;;
1829;SDS011;914;48.118;11.600;2022-12-24T11:12:57;2.63;;;0.97;;
1829;SDS011;914;48.118;11.600;2022-12-24T11:15:24;1.73;;;1.03;;
1829;SDS011;914;48.118;11.600;2022-12-24T11:18:00;0.80;;;0.77;;
1829;SDS011;914;48.118;11.600;2022-12-24T11:20:30;2.23;;;1.00;;
1829;SDS011;914;48.118;11.600;2022-12-24T11:22:58;1.37;;;0.90;;
1829;SDS011;914;48.118;11.600;2022-12-24T11:25:25;1.83;;;0.83;;
1829;SDS011;914;48.118;11.600;2022-12-24T11:28:10;1.20;;;0.90;;
1829;SDS011;914;48.118;11.600;2022-12-24T11:30:36;2.40;;;1.00;;
1829;SDS011;914;48.118;11.600;2022-12-24T11:35:29;1.10;;;0.70;;
1829;SDS011;914;48.118;11.600;2022-12-24T11:38:18;0.93;;;0.73;;
1829;SDS011;914;48.118;11.600;2022-12-24T11:40:48;1.53;;;0.90;;
1829;SDS011;914;48.118;11.600;2022-12-24T11:43:22;1.10;;;0.87;;
1829;SDS011;914;48.118;11.600;2022-12-24T11:45:49;1.53;;;0.90;;
1829;SDS011;914;48.118;11.600;2022-12-24T11:48:27;1.00;;;0.77;;
1829;SDS011;914;48.118;11.600;2022-12-24T11:50:55;1.43;;;1.00;;
1829;SDS011;914;48.118;11.600;2022-12-24T11:53:24;1.57;;;0.97;;
1829;SDS011;914;48.118;11.600;2022-12-24T11:55:59;2.70;;;1.10;;
1829;SDS011;914;48.118;11.600;2022-12-24T12:01:17;2.10;;;0.90;;
1829;SDS011;914;48.118;11.600;2022-12-24T12:04:04;6.53;;;1.00;;
1829;SDS011;914;48.118;11.600;2022-12-24T12:09:12;4.20;;;1.10;;
1829;SDS011;914;48.118;11.600;2022-12-24T12:11:43;2.80;;;1.23;;
1829;SDS011;914;48.118;11.600;2022-12-24T12:14:16;1.30;;;0.80;;
1829;SDS011;914;48.118;11.600;2022-12-24T12:17:03;3.10;;;0.90;;
1829;SDS011;914;48.118;11.600;2022-12-24T12:19:40;2.10;;;1.00;;
1829;SDS011;914;48.118;11.600;2022-12-24T12:22:24;3.07;;;0.93;;
1829;SDS011;914;48.118;11.600;2022-12-24T12:24:54;3.10;;;1.07;;
1829;SDS011;914;48.118;11.600;2022-12-24T12:30:09;2.87;;;1.10;;
1829;SDS011;914;48.118;11.600;2022-12-24T12:35:29;2.17;;;1.00;;
1829;SDS011;914;48.118;11.600;2022-12-24T12:38:11;2.50;;;1.17;;
1829;SDS011;914;48.118;11.600;2022-12-24T12:43:24;3.20;;;1.17;;
1829;SDS011;914;48.118;11.600;2022-12-24T12:46:15;1.33;;;0.90;;
1829;SDS011;914;48.118;11.600;2022-12-24T12:49:11;4.23;;;0.83;;
1829;SDS011;914;48.118;11.600;2022-12-24T12:51:50;1.37;;;0.97;;
1829;SDS011;914;48.118;11.600;2022-12-24T12:57:09;3.00;;;1.00;;
1829;SDS011;914;48.118;11.600;2022-12-24T12:59:39;2.83;;;0.87;;
1829;SDS011;914;48.118;11.600;2022-12-24T13:18:55;2.50;;;0.90;;
1829;SDS011;914;48.118;11.600;2022-12-24T13:21:28;2.57;;;1.30;;
1829;SDS011;914;48.118;11.600;2022-12-24T13:24:05;3.23;;;1.30;;
1829;SDS011;914;48.118;11.600;2022-12-24T13:26:31;2.00;;;0.90;;
1829;SDS011;914;48.118;11.600;2022-12-24T13:29:27;1.47;;;0.97;;
1829;SDS011;914;48.118;11.600;2022-12-24T13:34:46;2.20;;;1.03;;
1829;SDS011;914;48.118;11.600;2022-12-24T13:37:32;2.37;;;0.90;;
1829;SDS011;914;48.118;11.600;2022-12-24T13:47:53;1.00;;;0.90;;
1829;SDS011;914;48.118;11.600;2022-12-24T13:50:22;1.10;;;0.83;;
1829;SDS011;914;48.118;11.600;2022-12-24T13:52:53;1.27;;;0.97;;
1829;SDS011;914;48.118;11.600;2022-12-24T13:55:20;1.60;;;0.97;;
1829;SDS011;914;48.118;11.600;2022-12-24T13:57:53;3.87;;;1.13;;
1829;SDS011;914;48.118;11.600;2022-12-24T14:00:25;1.10;;;0.83;;
1829;SDS011;914;48.118;11.600;2022-12-24T14:05:46;2.20;;;0.93;;
1829;SDS011;914;48.118;11.600;2022-12-24T14:08:24;1.33;;;0.90;;
1829;SDS011;914;48.118;11.600;2022-12-24T14:16:17;3.63;;;0.90;;
1829;SDS011;914;48.118;11.600;2022-12-24T14:21:44;1.37;;;0.80;;
1829;SDS011;914;48.118;11.600;2022-12-24T14:24:20;1.00;;;0.90;;
1829;SDS011;914;48.118;11.600;2022-12-24T14:27:07;2.40;;;1.03;;
1829;SDS011;914;48.118;11.600;2022-12-24T14:29:49;1.23;;;0.80;;
1829;SDS011;914;48.118;11.600;2022-12-24T14:32:15;3.17;;;1.00;;
1829;SDS011;914;48.118;11.600;2022-12-24T14:34:41;1.03;;;0.80;;
1829;SDS011;914;48.118;11.600;2022-12-24T14:37:07;1.80;;;1.00;;
1829;SDS011;914;48.118;11.600;2022-12-24T14:39:37;1.50;;;0.97;;
1829;SDS011;914;48.118;11.600;2022-12-24T14:45:12;1.20;;;0.80;;
1829;SDS011;914;48.118;11.600;2022-12-24T14:47:51;1.10;;;0.90;;
1829;SDS011;914;48.118;11.600;2022-12-24T14:55:56;2.10;;;0.90;;
1829;SDS011;914;48.118;11.600;2022-12-24T14:58:32;2.30;;;1.60;;
1829;SDS011;914;48.118;11.600;2022-12-24T15:01:02;1.83;;;0.90;;
1829;SDS011;914;48.118;11.600;2022-12-24T15:03:44;3.30;;;1.67;;
1829;SDS011;914;48.118;11.600;2022-12-24T15:06:23;2.67;;;1.00;;
1829;SDS011;914;48.118;11.600;2022-12-24T15:08:50;2.13;;;1.23;;
1829;SDS011;914;48.118;11.600;2022-12-24T15:11:17;2.77;;;1.60;;
1829;SDS011;914;48.118;11.600;2022-12-24T15:13:45;2.00;;;1.50;;
1829;SDS011;914;48.118;11.600;2022-12-24T15:16:22;1.20;;;1.10;;
1829;SDS011;914;48.118;11.600;2022-12-24T15:19:00;2.27;;;1.23;;
1829;SDS011;914;48.118;11.600;2022-12-24T15:23:56;1.47;;;1.10;;
1829;SDS011;914;48.118;11.600;2022-12-24T15:26:29;0.93;;;0.93;;
1829;SDS011;914;48.118;11.600;2022-12-24T15:28:58;1.80;;;1.10;;
1829;SDS011;914;48.118;11.600;2022-12-24T15:31:25;1.53;;;1.00;;
1829;SDS011;914;48.118;11.600;2022-12-24T15:33:53;2.30;;;1.20;;
1829;SDS011;914;48.118;11.600;2022-12-24T15:36:33;4.57;;;1.40;;
1829;SDS011;914;48.118;11.600;2022-12-24T15:39:02;2.50;;;1.47;;
1829;SDS011;914;48.118;11.600;2022-12-24T15:41:40;1.57;;;1.47;;
1829;SDS011;914;48.118;11.600;2022-12-24T15:44:27;3.90;;;1.20;;
1829;SDS011;914;48.118;11.600;2022-12-24T15:47:01;1.57;;;1.40;;
1829;SDS011;914;48.118;11.600;2022-12-24T15:49:29;2.70;;;1.60;;
1829;SDS011;914;48.118;11.600;2022-12-24T15:52:03;2.03;;;1.43;;
1829;SDS011;914;48.118;11.600;2022-12-24T15:54:32;2.07;;;1.40;;
1829;SDS011;914;48.118;11.600;2022-12-24T15:56:58;2.20;;;1.20;;
1829;SDS011;914;48.118;11.600;2022-12-24T15:59:49;1.57;;;1.40;;
1829;SDS011;914;48.118;11.600;2022-12-24T16:05:16;1.60;;;1.43;;
1829;SDS011;914;48.118;11.600;2022-12-24T16:08:01;1.70;;;1.60;;
1829;SDS011;914;48.118;11.600;2022-12-24T16:10:34;2.67;;;1.50;;
1829;SDS011;914;48.118;11.600;2022-12-24T16:13:10;1.70;;;1.20;;
1829;SDS011;914;48.118;11.600;2022-12-24T16:15:52;2.77;;;1.60;;
1829;SDS011;914;48.118;11.600;2022-12-24T16:18:25;1.47;;;1.37;;
1829;SDS011;914;48.118;11.600;2022-12-24T16:20:55;1.50;;;1.40;;
1829;SDS011;914;48.118;11.600;2022-12-24T16:23:22;2.03;;;1.50;;
1829;SDS011;914;48.118;11.600;2022-12-24T16:25:51;1.53;;;1.33;;
1829;SDS011;914;48.118;11.600;2022-12-24T16:28:20;2.87;;;1.80;;
1829;SDS011;914;48.118;11.600;2022-12-24T16:30:46;2.03;;;1.80;;
1829;SDS011;914;48.118;11.600;2022-12-24T16:33:16;6.07;;;2.80;;
1829;SDS011;914;48.118;11.600;2022-12-24T16:35:44;2.27;;;1.63;;
1829;SDS011;914;48.118;11.600;2022-12-24T16:38:11;1.77;;;1.50;;
1829;SDS011;914;48.118;11.600;2022-12-24T16:40:39;4.80;;;1.70;;
1829;SDS011;914;48.118;11.600;2022-12-24T16:43:08;2.63;;;1.40;;
1829;SDS011;914;48.118;11.600;2022-12-24T16:45:54;1.47;;;1.10;;
1829;SDS011;914;48.118;11.600;2022-12-24T16:48:28;2.63;;;1.37;;
1829;SDS011;914;48.118;11.600;2022-12-24T16:50:54;2.53;;;1.37;;
1829;SDS011;914;48.118;11.600;2022-12-24T16:53:21;1.83;;;1.30;;
1829;SDS011;914;48.118;11.600;2022-12-24T16:55:47;2.70;;;1.83;;
1829;SDS011;914;48.118;11.600;2022-12-24T16:58:18;2.70;;;2.07;;
1829;SDS011;914;48.118;11.600;2022-12-24T17:00:45;1.80;;;1.70;;
1829;SDS011;914;48.118;11.600;2022-12-24T17:03:11;1.87;;;1.70;;
1829;SDS011;914;48.118;11.600;2022-12-24T17:05:38;2.30;;;1.80;;
1829;SDS011;914;48.118;11.600;2022-12-24T17:08:06;1.37;;;1.27;;
1829;SDS011;914;48.118;11.600;2022-12-24T17:10:32;1.73;;;1.43;;
1829;SDS011;914;48.118;11.600;2022-12-24T17:12:58;4.13;;;1.63;;
1829;SDS011;914;48.118;11.600;2022-12-24T17:15:25;2.57;;;1.60;;
1829;SDS011;914;48.118;11.600;2022-12-24T17:17:51;1.73;;;1.63;;
1829;SDS011;914;48.118;11.600;2022-12-24T17:20:16;1.50;;;1.37;;
1829;SDS011;914;48.118;11.600;2022-12-24T17:22:42;3.60;;;1.70;;
1829;SDS011;914;48.118;11.600;2022-12-24T17:25:09;2.73;;;1.90;;
1829;SDS011;914;48.118;11.600;2022-12-24T17:27:37;3.47;;;1.87;;
1829;SDS011;914;48.118;11.600;2022-12-24T17:30:03;2.50;;;1.80;;